Terminal Aerodrome Forecast
Issued by NWS

Current Version | Previous Version | Graphics & Text | Print | Product List | Glossary On
Versions: 1 2 3 4 5 6 7 8 9 10 11 12 13 14 15
000
FTUS41 KPBZ 010856 AAB
TAFMGW
TAF AMD
KMGW 010856Z 0109/0206 35010KT P6SM OVC015
      TEMPO 0109/0113 3SM BR OVC005
     FM011300 01006KT P6SM BKN050=

USA.gov is the U.S. government's official web portal to all federal, state and local government web resources and services.